Time;durP1;ratioP1;P1;durP2;ratioP2;P2;SDS_P1;SDS_P2;PMS_P1;PMS_P2;Temp;Humidity;BMP_temperature;BMP_pressure;BME280_temperature;BME280_humidity;BME280_pressure;Samples;Min_cycle;Max_cycle;Signal;HPM_P1;HPM_P2
2023/01/15 00:01:48;;;;;;;4.40;2.83;;;9.90;99.90;;;;;;4973380;28;20190;-51
2023/01/15 00:04:14;;;;;;;3.60;2.53;;;9.90;99.90;;;;;;4973213;28;20244;-51
2023/01/15 00:06:41;;;;;;;5.03;2.87;;;9.90;99.90;;;;;;4973505;28;20181;-51
2023/01/15 00:09:11;;;;;;;4.63;3.70;;;9.80;99.90;;;;;;4973386;28;20182;-53
2023/01/15 00:11:37;;;;;;;5.57;3.67;;;9.80;99.90;;;;;;4973043;28;20265;-53
2023/01/15 00:14:03;;;;;;;4.30;2.90;;;9.90;99.90;;;;;;4971701;28;20257;-51
2023/01/15 00:16:29;;;;;;;4.60;3.30;;;10.00;99.90;;;;;;4971966;28;20182;-52
2023/01/15 00:18:57;;;;;;;5.17;3.70;;;10.00;99.90;;;;;;4973150;28;20225;-51
2023/01/15 00:21:24;;;;;;;4.00;2.80;;;10.00;99.90;;;;;;4972963;28;20201;-54
2023/01/15 00:29:19;;;;;;;3.13;2.47;;;10.10;99.90;;;;;;4973087;28;20181;-51
2023/01/15 00:31:52;;;;;;;3.40;2.70;;;10.00;99.90;;;;;;4971683;28;20709;-53
2023/01/15 00:34:18;;;;;;;3.83;3.50;;;10.00;99.90;;;;;;4972575;28;20631;-51
2023/01/15 00:36:43;;;;;;;4.00;3.23;;;10.00;99.90;;;;;;4972981;28;20265;-53
2023/01/15 00:39:09;;;;;;;4.33;2.80;;;10.10;99.90;;;;;;4972814;28;20253;-51
2023/01/15 00:41:34;;;;;;;4.27;3.60;;;10.00;99.90;;;;;;4972090;28;20225;-52
2023/01/15 00:44:00;;;;;;;4.00;2.70;;;10.00;99.90;;;;;;4971360;28;20173;-52
2023/01/15 00:46:26;;;;;;;3.60;2.90;;;10.00;99.90;;;;;;4972397;28;20655;-52
2023/01/15 00:48:51;;;;;;;4.17;3.63;;;10.10;99.90;;;;;;4972829;28;20162;-54
2023/01/15 00:51:17;;;;;;;3.57;3.20;;;10.10;99.90;;;;;;4971177;28;20182;-52
2023/01/15 00:53:42;;;;;;;3.67;2.90;;;10.20;99.90;;;;;;4972308;28;20725;-51
2023/01/15 00:56:08;;;;;;;2.33;2.13;;;10.10;99.90;;;;;;4972406;28;20178;-52
2023/01/15 00:58:34;;;;;;;3.23;2.40;;;10.10;99.90;;;;;;4972332;28;20185;-52
2023/01/15 01:00:59;;;;;;;3.83;2.37;;;10.10;99.90;;;;;;4972202;28;20209;-51
2023/01/15 01:03:26;;;;;;;4.43;2.93;;;10.20;99.90;;;;;;4972417;28;20190;-52
2023/01/15 01:05:52;;;;;;;4.43;2.40;;;10.10;99.90;;;;;;4972034;28;20182;-52
2023/01/15 01:08:18;;;;;;;2.20;2.00;;;10.10;99.90;;;;;;4971165;28;20170;-51
2023/01/15 01:10:44;;;;;;;3.37;2.30;;;10.00;99.90;;;;;;4972201;28;20520;-52
2023/01/15 01:13:10;;;;;;;3.50;2.17;;;10.00;99.90;;;;;;4972086;28;20228;-55
2023/01/15 01:15:36;;;;;;;3.53;2.17;;;9.90;99.90;;;;;;4971468;28;20655;-54
2023/01/15 01:18:03;;;;;;;2.73;2.20;;;9.80;99.90;;;;;;4972112;28;20260;-53
2023/01/15 01:20:29;;;;;;;3.50;2.47;;;10.40;99.90;;;;;;4972005;28;20229;-54
2023/01/15 01:22:55;;;;;;;3.03;2.20;;;9.50;99.90;;;;;;4971809;28;20197;-52
2023/01/15 01:25:21;;;;;;;3.63;2.03;;;9.40;99.90;;;;;;4973658;28;20248;-51
2023/01/15 01:27:47;;;;;;;4.27;2.43;;;9.40;99.90;;;;;;4973078;28;20265;-53
2023/01/15 01:30:13;;;;;;;3.43;2.17;;;9.20;99.90;;;;;;4973127;28;20249;-53
2023/01/15 01:32:42;;;;;;;2.07;1.70;;;9.10;99.90;;;;;;4972850;28;20201;-51
2023/01/15 01:35:08;;;;;;;4.30;2.10;;;9.10;99.90;;;;;;4972925;28;20186;-51
2023/01/15 01:37:33;;;;;;;3.53;2.13;;;9.20;99.90;;;;;;4973043;28;20194;-54
2023/01/15 01:39:59;;;;;;;2.90;1.80;;;9.30;99.90;;;;;;4972629;28;20228;-51
2023/01/15 01:42:24;;;;;;;2.97;2.10;;;9.40;99.90;;;;;;4972947;28;20186;-52
2023/01/15 01:44:50;;;;;;;3.57;2.40;;;9.40;99.90;;;;;;4972413;28;20181;-51
2023/01/15 01:47:21;;;;;;;3.23;2.30;;;9.40;99.90;;;;;;4972761;28;20182;-51
2023/01/15 01:49:51;;;;;;;4.00;2.50;;;9.40;99.90;;;;;;4972382;28;20200;-50
2023/01/15 01:52:31;;;;;;;5.60;2.83;;;9.40;99.90;;;;;;4972358;28;20201;-55
2023/01/15 01:54:57;;;;;;;4.30;2.33;;;9.20;99.90;;;;;;4971901;28;20627;-50
2023/01/15 01:57:24;;;;;;;4.43;3.20;;;9.10;99.90;;;;;;4972330;28;20174;-50
2023/01/15 01:59:51;;;;;;;9.60;5.90;;;9.10;99.90;;;;;;4972281;28;20253;-51
2023/01/15 02:02:20;;;;;;;7.17;5.73;;;9.10;99.90;;;;;;4972397;28;20186;-51
2023/01/15 02:04:46;;;;;;;4.23;3.50;;;9.30;99.90;;;;;;4971943;28;20173;-51
2023/01/15 02:07:12;;;;;;;6.00;2.37;;;9.40;99.90;;;;;;4972482;28;20205;-51
2023/01/15 02:09:38;;;;;;;2.73;2.30;;;9.40;99.90;;;;;;4972598;28;20260;-51
2023/01/15 02:12:36;;;;;;;3.33;2.50;;;9.40;99.90;;;;;;4971979;28;20258;-51
2023/01/15 02:15:09;;;;;;;4.60;2.40;;;9.50;99.90;;;;;;4971647;28;20663;-51
2023/01/15 02:17:54;;;;;;;2.93;2.23;;;9.50;99.90;;;;;;4972276;28;20185;-54
2023/01/15 02:20:34;;;;;;;2.90;1.97;;;9.50;99.90;;;;;;4964316;28;20579;-52
2023/01/15 02:23:06;;;;;;;2.60;2.20;;;9.50;99.90;;;;;;4972109;28;20359;-53
2023/01/15 02:25:50;;;;;;;2.13;1.93;;;9.50;99.90;;;;;;4972111;28;20178;-51
2023/01/15 02:28:31;;;;;;;2.80;2.07;;;9.50;99.90;;;;;;4971851;28;20562;-51
2023/01/15 02:31:20;;;;;;;4.07;2.40;;;9.50;99.90;;;;;;4972425;28;20165;-52
2023/01/15 02:33:55;;;;;;;4.03;2.20;;;9.40;99.90;;;;;;4971182;28;20300;-51
2023/01/15 02:36:23;;;;;;;3.37;2.60;;;9.50;99.90;;;;;;4972320;28;20173;-53
2023/01/15 02:38:52;;;;;;;2.60;2.23;;;9.50;99.90;;;;;;4972105;28;20321;-52
2023/01/15 02:41:23;;;;;;;3.10;2.50;;;9.40;99.90;;;;;;4972355;28;20221;-52
2023/01/15 02:43:51;;;;;;;2.47;2.20;;;9.40;99.90;;;;;;4971762;28;20236;-50
2023/01/15 02:46:19;;;;;;;3.17;2.30;;;9.30;99.90;;;;;;4972133;28;20178;-51
2023/01/15 02:48:48;;;;;;;2.93;2.60;;;9.30;99.90;;;;;;4971954;28;20296;-50
2023/01/15 02:51:19;;;;;;;3.20;2.40;;;9.30;99.90;;;;;;4972145;28;20189;-54
2023/01/15 02:53:48;;;;;;;2.43;2.20;;;9.30;99.90;;;;;;4971728;28;20209;-51
2023/01/15 02:56:19;;;;;;;2.60;2.03;;;9.30;99.90;;;;;;4971935;28;20174;-51
2023/01/15 02:58:46;;;;;;;3.23;2.20;;;9.30;99.90;;;;;;4971863;28;20558;-54
2023/01/15 03:01:18;;;;;;;2.80;2.20;;;9.10;99.90;;;;;;4971987;28;20699;-53
2023/01/15 03:04:03;;;;;;;3.50;2.20;;;8.90;99.90;;;;;;4972033;28;20202;-51
2023/01/15 03:06:45;;;;;;;3.67;2.57;;;9.00;99.90;;;;;;4975561;28;20245;-51
2023/01/15 03:09:11;;;;;;;3.20;1.90;;;9.20;99.90;;;;;;4975653;28;20200;-52
2023/01/15 03:11:43;;;;;;;2.60;2.20;;;9.10;99.90;;;;;;4975096;28;20244;-53
2023/01/15 03:14:08;;;;;;;2.90;2.10;;;9.10;99.90;;;;;;4975536;28;20193;-51
2023/01/15 03:16:44;;;;;;;3.00;2.10;;;9.20;99.90;;;;;;4973845;28;20655;-51
2023/01/15 03:19:38;;;;;;;2.83;2.20;;;9.20;99.90;;;;;;4975535;28;20283;-52
2023/01/15 03:22:15;;;;;;;2.03;1.80;;;9.10;99.90;;;;;;4975406;28;20682;-52
2023/01/15 03:24:49;;;;;;;6.03;2.20;;;9.00;99.90;;;;;;4975247;28;20253;-51
2023/01/15 03:27:15;;;;;;;4.73;2.17;;;9.10;99.90;;;;;;4975135;28;20249;-52
2023/01/15 03:29:44;;;;;;;3.30;2.27;;;9.20;99.90;;;;;;4975470;28;20224;-54
2023/01/15 03:32:10;;;;;;;3.77;2.50;;;10.30;99.90;;;;;;4975111;28;20197;-52
2023/01/15 03:34:42;;;;;;;3.17;2.17;;;9.30;99.90;;;;;;4975030;28;20178;-51
2023/01/15 03:37:08;;;;;;;3.83;2.40;;;9.20;99.90;;;;;;4975110;28;20185;-52
2023/01/15 03:39:34;;;;;;;5.00;2.50;;;9.10;99.90;;;;;;4975115;28;20178;-54
2023/01/15 03:42:33;;;;;;;4.60;2.40;;;10.40;99.90;;;;;;4974964;28;20198;-51
2023/01/15 03:45:21;;;;;;;2.87;2.20;;;8.90;99.90;;;;;;4974827;28;20515;-50
2023/01/15 03:48:41;;;;;;;3.17;2.23;;;8.90;99.90;;;;;;4974924;28;20648;-52
2023/01/15 03:51:15;;;;;;;3.80;2.47;;;8.90;99.90;;;;;;4934228;29;20218;-51
2023/01/15 03:53:47;;;;;;;4.63;2.40;;;8.90;99.90;;;;;;4933398;29;20588;-52
2023/01/15 03:56:15;;;;;;;2.20;2.00;;;9.00;99.90;;;;;;4934147;29;20303;-52
2023/01/15 03:58:46;;;;;;;3.97;2.20;;;9.30;99.90;;;;;;4933899;29;20198;-51
2023/01/15 04:01:16;;;;;;;4.27;2.20;;;9.10;99.90;;;;;;4934050;29;20203;-51
2023/01/15 04:03:43;;;;;;;4.80;2.50;;;9.20;99.90;;;;;;4933410;29;20335;-52
2023/01/15 04:06:10;;;;;;;3.23;2.40;;;9.20;99.90;;;;;;4933918;29;20187;-52
2023/01/15 04:08:39;;;;;;;3.57;2.47;;;9.10;99.90;;;;;;4933627;29;20198;-53
2023/01/15 04:11:05;;;;;;;2.30;2.00;;;9.10;99.90;;;;;;4933898;29;20265;-54
2023/01/15 04:13:31;;;;;;;4.47;2.30;;;9.10;99.90;;;;;;4933594;29;20284;-52
2023/01/15 04:15:57;;;;;;;2.40;2.20;;;9.10;99.90;;;;;;4932537;29;20550;-53
2023/01/15 04:18:22;;;;;;;2.77;2.00;;;9.10;99.90;;;;;;4933566;29;20202;-51
2023/01/15 04:20:48;;;;;;;3.20;1.90;;;9.10;99.90;;;;;;4933484;29;20596;-55
2023/01/15 04:23:14;;;;;;;2.20;2.00;;;9.20;99.90;;;;;;4933561;29;20260;-52
2023/01/15 04:25:39;;;;;;;2.90;1.80;;;9.20;99.90;;;;;;4963265;28;20198;-51
2023/01/15 04:28:05;;;;;;;2.10;1.80;;;10.90;99.90;;;;;;4974406;28;20572;-53
2023/01/15 04:30:31;;;;;;;3.73;2.10;;;9.30;99.90;;;;;;4974269;28;20178;-52
2023/01/15 04:32:57;;;;;;;2.60;1.90;;;9.30;99.90;;;;;;4974135;28;20281;-50
2023/01/15 04:35:22;;;;;;;2.80;1.80;;;9.40;99.90;;;;;;4973997;28;20651;-51
2023/01/15 04:37:48;;;;;;;2.60;1.83;;;9.20;99.90;;;;;;4974257;28;20265;-51
2023/01/15 04:44:05;;;;;;;2.33;1.70;;;9.20;99.90;;;;;;4974142;28;20206;-51
2023/01/15 04:45:44;;;;;;;2.57;1.80;;;9.30;99.90;;;;;;4973780;28;20188;-52
2023/01/15 04:48:11;;;;;;;2.10;1.57;;;9.30;99.90;;;;;;4973773;28;20377;-52
2023/01/15 04:50:37;;;;;;;3.27;2.00;;;9.40;99.90;;;;;;4973935;28;20232;-51
2023/01/15 04:53:02;;;;;;;4.07;2.00;;;9.40;99.90;;;;;;4973805;28;20281;-51
2023/01/15 04:55:29;;;;;;;2.00;1.80;;;9.40;99.90;;;;;;4973577;28;20274;-55
2023/01/15 04:57:55;;;;;;;2.40;1.97;;;9.30;99.90;;;;;;4973544;28;20635;-50
2023/01/15 05:00:21;;;;;;;2.90;2.17;;;9.30;99.90;;;;;;4973118;28;20202;-52
2023/01/15 05:02:47;;;;;;;3.10;2.30;;;9.30;99.90;;;;;;4972666;28;20194;-53
2023/01/15 05:05:13;;;;;;;3.37;2.20;;;9.30;99.90;;;;;;4973175;28;20276;-52
2023/01/15 05:07:38;;;;;;;3.97;2.47;;;9.30;99.90;;;;;;4973387;28;20698;-51
2023/01/15 05:10:04;;;;;;;2.87;2.07;;;9.30;99.90;;;;;;4972005;28;20560;-52
2023/01/15 05:12:30;;;;;;;2.60;1.90;;;9.20;99.90;;;;;;4973176;28;20622;-51
2023/01/15 05:14:55;;;;;;;5.43;2.30;;;9.20;99.90;;;;;;4972959;28;20177;-53
2023/01/15 05:17:21;;;;;;;2.87;2.10;;;9.10;99.90;;;;;;4972157;28;20186;-51
2023/01/15 05:19:46;;;;;;;2.63;2.30;;;9.10;99.90;;;;;;4973114;28;20654;-51
2023/01/15 05:22:12;;;;;;;4.43;2.50;;;9.00;99.90;;;;;;4973187;28;20289;-51
2023/01/15 05:24:38;;;;;;;2.40;2.07;;;9.00;99.90;;;;;;4972820;28;20180;-50
2023/01/15 05:27:04;;;;;;;2.50;2.00;;;9.00;99.90;;;;;;4972987;28;20174;-50
2023/01/15 05:29:30;;;;;;;4.20;2.27;;;9.00;99.90;;;;;;4972078;28;20174;-53
2023/01/15 05:31:55;;;;;;;4.27;2.33;;;9.10;99.90;;;;;;4973054;28;20535;-54
2023/01/15 05:34:21;;;;;;;3.20;1.97;;;9.10;99.90;;;;;;4972925;28;20181;-51
2023/01/15 05:36:46;;;;;;;4.13;2.10;;;9.20;99.90;;;;;;4972851;28;20249;-52
2023/01/15 05:39:12;;;;;;;3.17;2.17;;;9.20;99.90;;;;;;4973002;28;20682;-51
2023/01/15 05:41:47;;;;;;;4.77;2.47;;;9.20;99.90;;;;;;4972639;28;20611;-51
2023/01/15 05:44:24;;;;;;;3.97;2.30;;;9.20;99.90;;;;;;4972790;28;20218;-51
2023/01/15 05:46:52;;;;;;;2.93;2.00;;;9.30;99.90;;;;;;4972775;28;20665;-52
2023/01/15 05:49:20;;;;;;;3.17;2.10;;;9.40;99.90;;;;;;4972890;28;20579;-52
2023/01/15 05:51:47;;;;;;;4.30;2.43;;;9.50;99.90;;;;;;4972639;28;20193;-51
2023/01/15 05:54:24;;;;;;;2.90;2.30;;;9.50;99.90;;;;;;4972414;28;20236;-51
2023/01/15 05:56:51;;;;;;;2.73;2.30;;;9.50;99.90;;;;;;4972368;28;20206;-53
2023/01/15 05:59:18;;;;;;;3.53;2.63;;;9.50;99.90;;;;;;4972733;28;20170;-54
2023/01/15 06:01:44;;;;;;;3.17;2.33;;;9.50;99.90;;;;;;4972282;28;20321;-52
2023/01/15 06:04:13;;;;;;;3.33;2.47;;;9.40;99.90;;;;;;4970903;28;20190;-53
2023/01/15 06:06:39;;;;;;;2.63;2.27;;;9.60;99.90;;;;;;4972503;28;20588;-51
2023/01/15 06:09:05;;;;;;;3.00;2.37;;;9.40;99.90;;;;;;4972258;28;20279;-53
2023/01/15 06:11:31;;;;;;;1.77;1.67;;;9.50;99.90;;;;;;4972390;28;20312;-51
2023/01/15 06:13:57;;;;;;;2.30;1.93;;;9.50;99.90;;;;;;4972005;28;20185;-51
2023/01/15 06:16:22;;;;;;;3.07;2.43;;;9.60;99.90;;;;;;4972483;28;20643;-52
2023/01/15 06:18:48;;;;;;;2.50;2.03;;;9.60;99.90;;;;;;4972328;28;20193;-51
2023/01/15 06:21:14;;;;;;;7.80;5.40;;;9.60;99.90;;;;;;4971092;28;20741;-52
2023/01/15 06:23:41;;;;;;;3.93;3.17;;;9.70;99.90;;;;;;4971768;28;20285;-53
2023/01/15 06:26:10;;;;;;;4.70;2.40;;;9.60;99.90;;;;;;4972122;28;20221;-51
2023/01/15 06:28:36;;;;;;;3.60;3.20;;;9.60;99.90;;;;;;4972195;28;20260;-52
2023/01/15 06:31:06;;;;;;;4.10;3.13;;;9.50;99.90;;;;;;4972099;28;20249;-51
2023/01/15 06:33:32;;;;;;;2.87;2.57;;;9.50;99.90;;;;;;4971999;28;20227;-51
2023/01/15 06:36:01;;;;;;;3.63;2.73;;;9.80;99.90;;;;;;4971763;28;20224;-50
2023/01/15 06:38:27;;;;;;;2.60;2.20;;;9.70;99.90;;;;;;4972123;28;20195;-52
2023/01/15 06:40:52;;;;;;;2.70;2.50;;;9.60;99.90;;;;;;4975131;28;20198;-50
2023/01/15 06:48:46;;;;;;;3.10;2.80;;;9.70;99.90;;;;;;4976279;28;20217;-51
2023/01/15 06:51:14;;;;;;;6.13;5.53;;;9.80;99.90;;;;;;4975888;28;20178;-52
2023/01/15 06:53:39;;;;;;;3.97;3.17;;;9.70;99.90;;;;;;4968070;28;20201;-53
2023/01/15 06:56:05;;;;;;;3.20;2.67;;;9.60;99.90;;;;;;4975525;28;20799;-51
2023/01/15 06:58:31;;;;;;;6.53;4.20;;;9.60;99.90;;;;;;4975869;28;20229;-52
2023/01/15 07:00:56;;;;;;;5.87;4.20;;;9.60;99.90;;;;;;4975896;28;20208;-53
2023/01/15 07:03:22;;;;;;;3.97;3.00;;;9.60;99.90;;;;;;4975571;28;20248;-51
2023/01/15 07:05:48;;;;;;;4.17;2.80;;;9.70;99.90;;;;;;4975600;28;20232;-52
2023/01/15 07:08:13;;;;;;;4.20;3.60;;;9.70;99.90;;;;;;4975475;28;20177;-51
2023/01/15 07:10:40;;;;;;;4.43;3.70;;;9.80;99.90;;;;;;4975786;28;20714;-51
2023/01/15 07:13:08;;;;;;;4.27;3.00;;;9.80;99.90;;;;;;4975272;28;20281;-55
2023/01/15 07:15:36;;;;;;;4.00;2.70;;;9.70;99.90;;;;;;4975399;28;20568;-50
2023/01/15 07:18:03;;;;;;;3.93;2.80;;;9.70;99.90;;;;;;4975402;28;20173;-52
2023/01/15 07:20:28;;;;;;;3.70;2.60;;;9.70;99.90;;;;;;4975697;28;20550;-51
2023/01/15 07:22:54;;;;;;;7.30;2.70;;;10.10;99.90;;;;;;4975312;28;20197;-52
2023/01/15 07:25:19;;;;;;;4.90;2.90;;;9.60;99.90;;;;;;4976251;28;20174;-49
2023/01/15 07:27:47;;;;;;;3.40;2.43;;;9.40;99.90;;;;;;4975087;28;20205;-50
2023/01/15 07:30:13;;;;;;;5.80;2.67;;;8.90;99.90;;;;;;4974147;28;20269;-52
2023/01/15 07:32:38;;;;;;;3.40;2.40;;;8.50;99.90;;;;;;4974927;28;20619;-52
2023/01/15 07:35:04;;;;;;;3.93;2.90;;;8.30;99.90;;;;;;4974959;28;20174;-52
2023/01/15 07:37:30;;;;;;;2.87;2.40;;;8.30;99.90;;;;;;4975120;28;20216;-52
2023/01/15 07:39:56;;;;;;;3.77;2.57;;;8.40;99.90;;;;;;4974875;28;20254;-52
2023/01/15 07:50:37;;;;;;;3.07;2.60;;;8.70;99.90;;;;;;4972940;28;20277;-53
2023/01/15 07:53:03;;;;;;;2.97;2.63;;;8.80;99.90;;;;;;4973751;28;20285;-51
2023/01/15 07:55:29;;;;;;;2.90;2.50;;;8.90;99.90;;;;;;4973359;28;20563;-51
2023/01/15 07:57:54;;;;;;;3.27;2.93;;;9.00;99.90;;;;;;4973494;28;20269;-52
2023/01/15 08:00:22;;;;;;;3.60;2.97;;;9.10;99.90;;;;;;4973769;28;20254;-54
2023/01/15 08:02:49;;;;;;;2.73;2.50;;;9.20;99.90;;;;;;4973556;28;20392;-51
2023/01/15 08:05:15;;;;;;;3.83;2.37;;;9.40;99.90;;;;;;4973361;28;20372;-50
2023/01/15 08:07:42;;;;;;;4.20;2.37;;;9.40;99.90;;;;;;4955984;28;20313;-51
2023/01/15 08:10:09;;;;;;;2.50;2.10;;;9.40;99.90;;;;;;4973795;28;20174;-50
2023/01/15 08:15:19;;;;;;;4.97;2.60;;;9.50;99.90;;;;;;4970616;28;20173;-52
2023/01/15 08:17:50;;;;;;;2.80;2.47;;;9.60;99.90;;;;;;4973060;28;20571;-54
2023/01/15 08:20:25;;;;;;;3.53;2.77;;;9.60;99.90;;;;;;4973208;28;20197;-50
2023/01/15 08:22:51;;;;;;;3.87;2.93;;;9.50;99.90;;;;;;4972899;28;20277;-52
2023/01/15 08:25:19;;;;;;;4.00;3.60;;;10.20;99.90;;;;;;4972768;28;20178;-51
2023/01/15 08:27:46;;;;;;;10.90;3.30;;;9.50;99.90;;;;;;4972923;28;20639;-51
2023/01/15 08:30:19;;;;;;;6.23;4.33;;;9.60;99.90;;;;;;4974246;28;20178;-53
2023/01/15 08:32:44;;;;;;;5.33;4.70;;;9.70;99.90;;;;;;4973999;28;20679;-52
2023/01/15 08:35:11;;;;;;;3.17;2.40;;;9.60;99.90;;;;;;4973767;28;20177;-52
2023/01/15 08:37:37;;;;;;;2.70;2.10;;;9.70;99.90;;;;;;4973952;28;20257;-51
2023/01/15 08:40:03;;;;;;;2.80;2.13;;;9.80;99.90;;;;;;4965462;28;20284;-52
2023/01/15 08:42:29;;;;;;;2.40;2.20;;;9.80;99.90;;;;;;4963011;28;20197;-51
2023/01/15 08:44:54;;;;;;;2.00;1.90;;;9.90;99.90;;;;;;4963013;28;20241;-52
2023/01/15 08:47:20;;;;;;;3.93;1.87;;;9.90;99.90;;;;;;4962246;28;20628;-50
2023/01/15 08:49:49;;;;;;;12.77;9.67;;;9.80;99.90;;;;;;4962536;28;20647;-50
2023/01/15 08:52:15;;;;;;;5.50;2.50;;;9.70;99.90;;;;;;4963487;28;20186;-51
2023/01/15 08:54:40;;;;;;;2.57;2.10;;;9.60;99.90;;;;;;4961375;28;20278;-51
2023/01/15 08:57:08;;;;;;;35.17;21.47;;;9.60;99.90;;;;;;4963523;28;20224;-51
2023/01/15 08:59:33;;;;;;;5.93;3.60;;;9.70;99.90;;;;;;4962918;28;20587;-50
2023/01/15 09:01:59;;;;;;;2.20;2.00;;;9.70;99.90;;;;;;4961107;28;20229;-54
2023/01/15 09:04:25;;;;;;;9.83;7.40;;;9.70;99.90;;;;;;4963426;28;20265;-50
2023/01/15 09:06:51;;;;;;;6.87;5.00;;;9.70;99.90;;;;;;4962629;28;20537;-53
2023/01/15 09:09:17;;;;;;;4.73;3.17;;;9.70;99.90;;;;;;4960646;28;20236;-52
2023/01/15 09:11:43;;;;;;;4.07;2.73;;;9.70;99.90;;;;;;4963166;28;20248;-53
2023/01/15 09:14:11;;;;;;;4.30;2.60;;;9.70;99.90;;;;;;4961937;28;20179;-51
2023/01/15 09:16:37;;;;;;;2.80;2.50;;;9.60;99.90;;;;;;4962030;28;20320;-51
2023/01/15 09:19:04;;;;;;;7.43;6.37;;;9.60;99.90;;;;;;4963456;28;20185;-53
2023/01/15 09:21:30;;;;;;;3.50;3.20;;;9.70;99.90;;;;;;4961923;28;20213;-51
2023/01/15 09:23:56;;;;;;;22.60;20.50;;;9.70;99.90;;;;;;4961856;28;20174;-53
2023/01/15 09:26:26;;;;;;;4.53;3.90;;;9.70;99.90;;;;;;4963254;28;20524;-51
2023/01/15 09:28:52;;;;;;;4.53;3.13;;;9.70;99.90;;;;;;4962103;28;20190;-51
2023/01/15 09:31:17;;;;;;;3.20;2.90;;;9.80;99.90;;;;;;4961627;28;20252;-51
2023/01/15 09:33:43;;;;;;;3.40;2.80;;;9.70;99.90;;;;;;4961543;28;20193;-51
2023/01/15 09:36:23;;;;;;;3.80;2.90;;;9.60;99.90;;;;;;4961785;28;20191;-52
2023/01/15 09:38:48;;;;;;;4.97;3.53;;;9.60;99.90;;;;;;4964419;28;20643;-52
2023/01/15 09:44:22;;;;;;;9.57;7.53;;;9.70;99.90;;;;;;4972766;28;20237;-53
2023/01/15 09:47:07;;;;;;;4.23;3.40;;;9.70;99.90;;;;;;4972984;28;20212;-51
2023/01/15 09:50:05;;;;;;;4.87;3.50;;;9.80;99.90;;;;;;4971311;28;20201;-51
2023/01/15 09:52:58;;;;;;;5.10;3.77;;;9.90;99.90;;;;;;4971624;28;20280;-52
2023/01/15 09:55:25;;;;;;;3.83;3.17;;;10.00;99.90;;;;;;4972413;28;20218;-52
2023/01/15 09:57:54;;;;;;;4.40;3.10;;;10.10;99.90;;;;;;4972539;28;20170;-53
2023/01/15 10:00:25;;;;;;;4.23;3.07;;;10.20;99.90;;;;;;4972340;28;20225;-54
2023/01/15 10:03:01;;;;;;;5.00;4.30;;;10.10;99.90;;;;;;4972567;28;20610;-52
2023/01/15 10:05:37;;;;;;;5.47;4.83;;;10.10;99.90;;;;;;4972497;28;20475;-53
2023/01/15 10:08:10;;;;;;;3.27;2.97;;;10.20;99.90;;;;;;4972570;28;20161;-54
2023/01/15 10:10:46;;;;;;;3.60;3.30;;;10.20;99.90;;;;;;4972558;28;20209;-51
2023/01/15 10:13:29;;;;;;;6.57;3.83;;;10.10;99.90;;;;;;4972474;28;20215;-54
2023/01/15 10:15:56;;;;;;;4.17;3.40;;;10.10;99.90;;;;;;4971829;28;20197;-51
2023/01/15 10:18:23;;;;;;;5.27;4.30;;;10.00;99.90;;;;;;4972575;28;20180;-53
2023/01/15 10:21:23;;;;;;;5.60;4.20;;;9.90;99.90;;;;;;4972285;28;20301;-51
2023/01/15 10:24:09;;;;;;;8.57;5.30;;;9.80;99.90;;;;;;4971957;28;20199;-53
2023/01/15 10:26:44;;;;;;;6.07;3.83;;;9.90;99.90;;;;;;4972344;28;20181;-53
2023/01/15 10:29:28;;;;;;;5.30;4.23;;;9.90;99.90;;;;;;4972341;28;20166;-51
2023/01/15 10:32:23;;;;;;;17.03;12.37;;;9.70;99.90;;;;;;4972382;28;20205;-51
2023/01/15 10:35:03;;;;;;;10.07;6.87;;;9.60;99.90;;;;;;4912260;29;20239;-56
2023/01/15 10:37:45;;;;;;;4.47;3.50;;;9.30;99.90;;;;;;4912387;29;20266;-53
2023/01/15 10:41:04;;;;;;;6.40;3.57;;;9.30;99.90;;;;;;4912633;29;20288;-53
2023/01/15 10:44:09;;;;;;;6.57;4.13;;;9.40;99.90;;;;;;4874758;29;20201;-49
2023/01/15 10:46:39;;;;;;;5.10;4.00;;;9.60;99.90;;;;;;4874877;29;20686;-52
2023/01/15 10:49:12;;;;;;;7.93;4.27;;;9.80;99.90;;;;;;4903422;29;20180;-54
2023/01/15 10:51:57;;;;;;;4.60;3.30;;;10.00;99.90;;;;;;4896551;29;20545;-53
2023/01/15 10:54:32;;;;;;;6.37;4.63;;;10.00;99.90;;;;;;4912048;29;20184;-53
2023/01/15 10:57:33;;;;;;;5.67;5.07;;;10.10;99.90;;;;;;4912427;29;20167;-51
2023/01/15 11:00:00;;;;;;;4.43;3.70;;;10.20;99.90;;;;;;4874743;29;20306;-52
2023/01/15 11:02:37;;;;;;;4.70;3.90;;;10.30;99.90;;;;;;4874632;29;20205;-51
2023/01/15 11:05:03;;;;;;;4.67;3.73;;;10.40;99.90;;;;;;4874583;29;20192;-52
2023/01/15 11:07:39;;;;;;;4.27;3.80;;;10.60;99.90;;;;;;4874690;29;20181;-53
2023/01/15 11:10:17;;;;;;;4.10;3.50;;;10.70;99.90;;;;;;4874939;29;20276;-51
2023/01/15 11:21:24;;;;;;;5.80;5.20;;;11.00;99.90;;;;;;4931161;29;20258;-52
2023/01/15 11:23:50;;;;;;;5.30;4.17;;;11.10;99.90;;;;;;4930499;29;20207;-51
2023/01/15 11:26:23;;;;;;;7.40;5.90;;;11.30;99.90;;;;;;4926524;29;20258;-52
2023/01/15 11:28:49;;;;;;;9.50;8.50;;;11.20;99.90;;;;;;4934617;29;20626;-51
2023/01/15 11:31:15;;;;;;;6.10;4.90;;;11.20;99.90;;;;;;4934533;29;20193;-52
2023/01/15 11:33:56;;;;;;;5.30;3.50;;;11.30;99.90;;;;;;4934081;29;20726;-53
2023/01/15 11:36:24;;;;;;;4.53;3.00;;;11.30;99.90;;;;;;4947732;28;20232;-51
2023/01/15 11:38:51;;;;;;;3.23;2.93;;;11.00;99.90;;;;;;4975073;28;20558;-52
2023/01/15 11:52:25;;;;;;;4.43;2.87;;;9.10;99.90;;;;;;4974953;28;20613;-55
2023/01/15 11:54:54;;;;;;;5.63;3.03;;;8.80;99.90;;;;;;4974501;28;20309;-51
2023/01/15 11:57:29;;;;;;;3.73;3.00;;;8.60;99.90;;;;;;4974743;28;20565;-52
2023/01/15 11:59:56;;;;;;;4.37;3.03;;;8.50;99.90;;;;;;4974850;28;20172;-53
2023/01/15 12:05:16;;;;;;;2.43;2.23;;;8.70;99.90;;;;;;4974631;28;20239;-51
2023/01/15 12:07:43;;;;;;;2.20;2.00;;;9.00;99.90;;;;;;4974758;28;20206;-52
2023/01/15 12:13:36;;;;;;;1.67;1.50;;;9.20;99.90;;;;;;4974798;28;20280;-52
2023/01/15 12:16:14;;;;;;;2.17;1.50;;;9.20;99.90;;;;;;4974544;28;20179;-52
2023/01/15 12:19:09;;;;;;;1.77;1.33;;;9.10;99.90;;;;;;4974683;28;20172;-51
2023/01/15 12:21:45;;;;;;;1.63;1.30;;;8.90;99.90;;;;;;4974312;28;20194;-52
2023/01/15 12:24:34;;;;;;;1.30;1.20;;;8.90;99.90;;;;;;4974223;28;20169;-52
2023/01/15 12:27:18;;;;;;;1.57;1.27;;;9.10;99.90;;;;;;4974433;28;20205;-51
2023/01/15 12:30:22;;;;;;;1.60;1.50;;;9.00;99.90;;;;;;4974805;28;20194;-55
2023/01/15 12:33:13;;;;;;;1.20;1.10;;;9.10;99.90;;;;;;4933302;29;20703;-52
2023/01/15 12:35:55;;;;;;;0.80;0.80;;;8.80;99.90;;;;;;4933033;29;20179;-52
2023/01/15 12:38:51;;;;;;;1.20;0.73;;;8.50;99.90;;;;;;4932237;29;20219;-51
2023/01/15 12:41:21;;;;;;;0.50;0.50;;;8.60;99.90;;;;;;4924223;29;20246;-56
2023/01/15 12:46:40;;;;;;;1.90;0.83;;;8.50;99.90;;;;;;4933538;29;20537;-51
2023/01/15 12:49:20;;;;;;;0.47;0.47;;;8.40;99.90;;;;;;4933256;29;20230;-51
2023/01/15 12:52:09;;;;;;;0.40;0.40;;;8.40;99.90;;;;;;4932145;29;20199;-53
2023/01/15 12:54:42;;;;;;;0.37;0.37;;;8.50;99.90;;;;;;4932420;29;20191;-51
2023/01/15 12:57:36;;;;;;;0.57;0.57;;;8.60;99.90;;;;;;4932908;29;20227;-51
2023/01/15 13:00:16;;;;;;;0.40;0.40;;;8.50;99.90;;;;;;4932732;29;20546;-52
2023/01/15 13:03:09;;;;;;;0.50;0.50;;;8.30;99.90;;;;;;4932896;29;20338;-53
2023/01/15 13:05:46;;;;;;;0.90;0.70;;;8.00;99.90;;;;;;4932367;29;20202;-53
2023/01/15 13:08:34;;;;;;;0.50;0.50;;;7.90;99.90;;;;;;4938391;28;20200;-50
2023/01/15 13:10:59;;;;;;;0.40;0.40;;;7.80;99.90;;;;;;4973229;28;20221;-51
2023/01/15 13:13:31;;;;;;;0.40;0.40;;;7.80;99.90;;;;;;4973333;28;20686;-51
2023/01/15 13:16:18;;;;;;;0.63;0.60;;;7.80;99.90;;;;;;4973087;28;20178;-51
2023/01/15 13:19:09;;;;;;;0.47;0.47;;;7.60;99.90;;;;;;4971841;28;20276;-52
2023/01/15 13:21:37;;;;;;;0.40;0.40;;;7.50;99.90;;;;;;4972132;28;20556;-52
2023/01/15 13:24:27;;;;;;;0.60;0.60;;;7.40;99.90;;;;;;4972603;28;20252;-52
2023/01/15 13:27:10;;;;;;;0.60;0.60;;;7.40;99.90;;;;;;4974102;28;20253;-53
2023/01/15 13:29:55;;;;;;;0.60;0.50;;;7.30;99.90;;;;;;4968506;28;20210;-51
2023/01/15 13:32:28;;;;;;;0.37;0.37;;;7.30;99.90;;;;;;4963726;28;20858;-50
2023/01/15 13:35:21;;;;;;;0.47;0.40;;;7.30;99.90;;;;;;4960900;28;20636;-52
2023/01/15 13:37:52;;;;;;;1.40;0.80;;;7.30;99.90;;;;;;4963029;28;20253;-50
2023/01/15 13:40:39;;;;;;;0.67;0.60;;;7.30;99.90;;;;;;4963039;28;20197;-51
2023/01/15 13:43:07;;;;;;;0.80;0.50;;;7.50;99.90;;;;;;4963528;28;20198;-48
2023/01/15 13:45:48;;;;;;;0.50;0.50;;;7.60;99.90;;;;;;4960658;28;20201;-50
2023/01/15 13:48:25;;;;;;;0.50;0.50;;;7.70;99.90;;;;;;4960481;28;20194;-49
2023/01/15 13:50:57;;;;;;;0.50;0.50;;;7.70;99.90;;;;;;4975431;28;20201;-50
2023/01/15 13:53:29;;;;;;;0.40;0.40;;;7.70;99.90;;;;;;4961750;28;20202;-50
2023/01/15 13:55:58;;;;;;;0.50;0.50;;;7.60;99.90;;;;;;4962535;28;20177;-51
2023/01/15 13:58:27;;;;;;;0.53;0.53;;;7.50;99.90;;;;;;4961719;28;20191;-49
2023/01/15 14:01:03;;;;;;;0.50;0.50;;;7.30;99.90;;;;;;4960877;28;20194;-53
2023/01/15 14:03:31;;;;;;;0.40;0.40;;;7.30;99.90;;;;;;4960940;28;20353;-50
2023/01/15 14:06:08;;;;;;;0.50;0.40;;;7.30;99.90;;;;;;4962409;28;20174;-50
2023/01/15 14:08:40;;;;;;;0.60;0.60;;;7.50;99.90;;;;;;4962427;28;20672;-49
2023/01/15 14:11:28;;;;;;;0.50;0.50;;;7.60;99.90;;;;;;4961794;28;20654;-52
2023/01/15 14:14:32;;;;;;;0.50;0.50;;;7.60;99.90;;;;;;4985254;28;20276;-51